sensor_id;sensor_type;location;lat;lon;timestamp;P1;durP1;ratioP1;P2;durP2;ratioP2
38399;SDS011;24180;42.676;23.320;2024-01-30T00:01:01;2.60;;;2.28;;
38399;SDS011;24180;42.676;23.320;2024-01-30T00:03:26;2.78;;;2.35;;
38399;SDS011;24180;42.676;23.320;2024-01-30T00:05:52;3.00;;;2.55;;
38399;SDS011;24180;42.676;23.320;2024-01-30T00:08:17;3.05;;;2.30;;
38399;SDS011;24180;42.676;23.320;2024-01-30T00:10:43;2.92;;;2.42;;
38399;SDS011;24180;42.676;23.320;2024-01-30T00:13:08;3.35;;;2.63;;
38399;SDS011;24180;42.676;23.320;2024-01-30T00:15:34;2.47;;;2.28;;
38399;SDS011;24180;42.676;23.320;2024-01-30T00:18:00;3.42;;;2.53;;
38399;SDS011;24180;42.676;23.320;2024-01-30T00:20:26;2.47;;;2.22;;
38399;SDS011;24180;42.676;23.320;2024-01-30T00:22:51;2.42;;;2.20;;
38399;SDS011;24180;42.676;23.320;2024-01-30T00:25:17;2.33;;;2.13;;
38399;SDS011;24180;42.676;23.320;2024-01-30T00:27:42;3.55;;;2.22;;
38399;SDS011;24180;42.676;23.320;2024-01-30T00:30:08;3.00;;;2.80;;
38399;SDS011;24180;42.676;23.320;2024-01-30T00:32:34;2.45;;;2.25;;
38399;SDS011;24180;42.676;23.320;2024-01-30T00:35:00;2.63;;;2.40;;
38399;SDS011;24180;42.676;23.320;2024-01-30T00:37:25;2.53;;;2.33;;
38399;SDS011;24180;42.676;23.320;2024-01-30T00:39:51;2.30;;;2.10;;
38399;SDS011;24180;42.676;23.320;2024-01-30T00:42:16;2.08;;;1.90;;
38399;SDS011;24180;42.676;23.320;2024-01-30T00:44:42;3.80;;;2.53;;
38399;SDS011;24180;42.676;23.320;2024-01-30T00:47:07;4.80;;;2.80;;
38399;SDS011;24180;42.676;23.320;2024-01-30T00:49:33;4.22;;;3.83;;
38399;SDS011;24180;42.676;23.320;2024-01-30T00:51:58;5.68;;;4.60;;
38399;SDS011;24180;42.676;23.320;2024-01-30T00:54:24;2.05;;;1.85;;
38399;SDS011;24180;42.676;23.320;2024-01-30T00:56:49;2.67;;;2.47;;
38399;SDS011;24180;42.676;23.320;2024-01-30T00:59:15;3.33;;;2.72;;
38399;SDS011;24180;42.676;23.320;2024-01-30T01:01:40;2.97;;;2.67;;
38399;SDS011;24180;42.676;23.320;2024-01-30T01:04:05;2.90;;;2.47;;
38399;SDS011;24180;42.676;23.320;2024-01-30T01:06:32;2.80;;;2.40;;
38399;SDS011;24180;42.676;23.320;2024-01-30T01:08:57;2.40;;;2.20;;
38399;SDS011;24180;42.676;23.320;2024-01-30T01:11:23;2.08;;;1.80;;
38399;SDS011;24180;42.676;23.320;2024-01-30T01:13:48;2.78;;;2.50;;
38399;SDS011;24180;42.676;23.320;2024-01-30T01:16:14;2.45;;;2.13;;
38399;SDS011;24180;42.676;23.320;2024-01-30T01:18:39;2.30;;;2.10;;
38399;SDS011;24180;42.676;23.320;2024-01-30T01:21:05;3.53;;;2.80;;
38399;SDS011;24180;42.676;23.320;2024-01-30T01:23:30;2.88;;;2.30;;
38399;SDS011;24180;42.676;23.320;2024-01-30T01:25:56;3.53;;;2.45;;
38399;SDS011;24180;42.676;23.320;2024-01-30T01:28:21;4.05;;;2.63;;
38399;SDS011;24180;42.676;23.320;2024-01-30T01:30:47;4.22;;;2.80;;
38399;SDS011;24180;42.676;23.320;2024-01-30T01:33:12;4.20;;;3.10;;
38399;SDS011;24180;42.676;23.320;2024-01-30T01:35:39;4.35;;;3.72;;
38399;SDS011;24180;42.676;23.320;2024-01-30T01:38:05;7.75;;;4.88;;
38399;SDS011;24180;42.676;23.320;2024-01-30T01:40:30;3.67;;;2.92;;
38399;SDS011;24180;42.676;23.320;2024-01-30T01:42:56;5.32;;;3.47;;
38399;SDS011;24180;42.676;23.320;2024-01-30T01:45:22;4.35;;;2.35;;
38399;SDS011;24180;42.676;23.320;2024-01-30T01:47:50;2.88;;;2.60;;
38399;SDS011;24180;42.676;23.320;2024-01-30T01:50:16;2.63;;;2.42;;
38399;SDS011;24180;42.676;23.320;2024-01-30T01:52:49;5.65;;;2.88;;
38399;SDS011;24180;42.676;23.320;2024-01-30T01:55:16;4.47;;;3.00;;
38399;SDS011;24180;42.676;23.320;2024-01-30T01:57:47;3.53;;;2.90;;
38399;SDS011;24180;42.676;23.320;2024-01-30T02:00:13;2.40;;;2.17;;
38399;SDS011;24180;42.676;23.320;2024-01-30T02:02:39;2.40;;;2.20;;
38399;SDS011;24180;42.676;23.320;2024-01-30T02:05:05;3.53;;;2.65;;
38399;SDS011;24180;42.676;23.320;2024-01-30T02:07:31;4.35;;;2.50;;
38399;SDS011;24180;42.676;23.320;2024-01-30T02:09:56;5.82;;;3.13;;
38399;SDS011;24180;42.676;23.320;2024-01-30T02:12:22;3.47;;;2.85;;
38399;SDS011;24180;42.676;23.320;2024-01-30T02:14:47;3.88;;;2.80;;
38399;SDS011;24180;42.676;23.320;2024-01-30T02:17:14;3.17;;;2.78;;
38399;SDS011;24180;42.676;23.320;2024-01-30T02:19:40;4.53;;;2.60;;
38399;SDS011;24180;42.676;23.320;2024-01-30T02:22:06;2.67;;;2.08;;
38399;SDS011;24180;42.676;23.320;2024-01-30T02:24:32;2.85;;;2.25;;
38399;SDS011;24180;42.676;23.320;2024-01-30T02:26:58;2.90;;;2.70;;
38399;SDS011;24180;42.676;23.320;2024-01-30T02:29:23;2.60;;;2.40;;
38399;SDS011;24180;42.676;23.320;2024-01-30T02:31:49;2.42;;;2.22;;
38399;SDS011;24180;42.676;23.320;2024-01-30T02:34:15;4.18;;;2.40;;
38399;SDS011;24180;42.676;23.320;2024-01-30T02:36:42;4.80;;;2.50;;
38399;SDS011;24180;42.676;23.320;2024-01-30T02:39:08;2.50;;;2.30;;
38399;SDS011;24180;42.676;23.320;2024-01-30T02:41:33;2.40;;;2.10;;
38399;SDS011;24180;42.676;23.320;2024-01-30T02:43:58;2.42;;;2.22;;
38399;SDS011;24180;42.676;23.320;2024-01-30T02:46:24;1.73;;;1.63;;
38399;SDS011;24180;42.676;23.320;2024-01-30T02:48:50;2.55;;;2.05;;
38399;SDS011;24180;42.676;23.320;2024-01-30T02:51:15;2.80;;;2.53;;
38399;SDS011;24180;42.676;23.320;2024-01-30T02:53:41;2.30;;;2.10;;
38399;SDS011;24180;42.676;23.320;2024-01-30T02:56:07;2.03;;;1.83;;
38399;SDS011;24180;42.676;23.320;2024-01-30T02:58:34;2.58;;;2.03;;
38399;SDS011;24180;42.676;23.320;2024-01-30T03:01:01;3.10;;;1.95;;
38399;SDS011;24180;42.676;23.320;2024-01-30T03:03:26;2.63;;;2.42;;
38399;SDS011;24180;42.676;23.320;2024-01-30T03:05:51;2.80;;;2.45;;
38399;SDS011;24180;42.676;23.320;2024-01-30T03:08:17;1.95;;;1.77;;
38399;SDS011;24180;42.676;23.320;2024-01-30T03:10:42;1.88;;;1.73;;
38399;SDS011;24180;42.676;23.320;2024-01-30T03:13:08;2.40;;;1.85;;
38399;SDS011;24180;42.676;23.320;2024-01-30T03:15:33;2.28;;;1.90;;
38399;SDS011;24180;42.676;23.320;2024-01-30T03:17:59;2.00;;;1.80;;
38399;SDS011;24180;42.676;23.320;2024-01-30T03:20:24;1.85;;;1.75;;
38399;SDS011;24180;42.676;23.320;2024-01-30T03:22:50;2.15;;;1.95;;
38399;SDS011;24180;42.676;23.320;2024-01-30T03:25:15;1.92;;;1.83;;
38399;SDS011;24180;42.676;23.320;2024-01-30T03:27:41;2.80;;;2.03;;
38399;SDS011;24180;42.676;23.320;2024-01-30T03:30:06;1.83;;;1.70;;
38399;SDS011;24180;42.676;23.320;2024-01-30T03:32:32;2.75;;;2.03;;
38399;SDS011;24180;42.676;23.320;2024-01-30T03:34:58;1.80;;;1.70;;
38399;SDS011;24180;42.676;23.320;2024-01-30T03:37:24;1.48;;;1.38;;
38399;SDS011;24180;42.676;23.320;2024-01-30T03:39:49;4.07;;;1.48;;
38399;SDS011;24180;42.676;23.320;2024-01-30T03:42:15;2.10;;;2.00;;
38399;SDS011;24180;42.676;23.320;2024-01-30T03:44:40;2.25;;;1.83;;
38399;SDS011;24180;42.676;23.320;2024-01-30T03:47:06;2.17;;;1.70;;
38399;SDS011;24180;42.676;23.320;2024-01-30T03:49:31;1.48;;;1.38;;
38399;SDS011;24180;42.676;23.320;2024-01-30T03:51:57;1.65;;;1.52;;
38399;SDS011;24180;42.676;23.320;2024-01-30T03:54:22;1.35;;;1.35;;
38399;SDS011;24180;42.676;23.320;2024-01-30T03:56:48;1.52;;;1.42;;
38399;SDS011;24180;42.676;23.320;2024-01-30T03:59:13;1.90;;;1.73;;
38399;SDS011;24180;42.676;23.320;2024-01-30T04:01:39;1.92;;;1.27;;
38399;SDS011;24180;42.676;23.320;2024-01-30T04:04:04;1.65;;;1.55;;
38399;SDS011;24180;42.676;23.320;2024-01-30T04:06:30;1.25;;;1.15;;
38399;SDS011;24180;42.676;23.320;2024-01-30T04:08:55;1.80;;;1.38;;
38399;SDS011;24180;42.676;23.320;2024-01-30T04:11:20;1.92;;;1.77;;
38399;SDS011;24180;42.676;23.320;2024-01-30T04:13:46;1.63;;;1.52;;
38399;SDS011;24180;42.676;23.320;2024-01-30T04:16:22;1.48;;;1.38;;
38399;SDS011;24180;42.676;23.320;2024-01-30T04:18:48;1.48;;;1.38;;
38399;SDS011;24180;42.676;23.320;2024-01-30T04:21:13;1.60;;;1.50;;
38399;SDS011;24180;42.676;23.320;2024-01-30T04:23:39;3.28;;;1.73;;
38399;SDS011;24180;42.676;23.320;2024-01-30T04:26:06;3.55;;;1.95;;
38399;SDS011;24180;42.676;23.320;2024-01-30T04:28:31;2.30;;;1.60;;
38399;SDS011;24180;42.676;23.320;2024-01-30T04:30:57;1.98;;;1.77;;
38399;SDS011;24180;42.676;23.320;2024-01-30T04:33:23;2.03;;;1.70;;
38399;SDS011;24180;42.676;23.320;2024-01-30T04:35:48;1.50;;;1.40;;
38399;SDS011;24180;42.676;23.320;2024-01-30T04:38:13;2.00;;;1.90;;
38399;SDS011;24180;42.676;23.320;2024-01-30T04:40:39;5.88;;;1.20;;
38399;SDS011;24180;42.676;23.320;2024-01-30T04:43:05;2.00;;;1.83;;
38399;SDS011;24180;42.676;23.320;2024-01-30T04:45:31;2.83;;;2.63;;
38399;SDS011;24180;42.676;23.320;2024-01-30T04:47:56;2.55;;;2.35;;
38399;SDS011;24180;42.676;23.320;2024-01-30T04:50:22;2.58;;;2.13;;
38399;SDS011;24180;42.676;23.320;2024-01-30T04:52:48;3.45;;;2.10;;
38399;SDS011;24180;42.676;23.320;2024-01-30T04:55:14;2.85;;;2.15;;
38399;SDS011;24180;42.676;23.320;2024-01-30T04:57:39;2.20;;;2.00;;
38399;SDS011;24180;42.676;23.320;2024-01-30T05:00:05;1.85;;;1.67;;
38399;SDS011;24180;42.676;23.320;2024-01-30T05:02:31;3.03;;;2.10;;
38399;SDS011;24180;42.676;23.320;2024-01-30T05:04:57;2.50;;;2.30;;
38399;SDS011;24180;42.676;23.320;2024-01-30T05:07:24;2.15;;;1.95;;
38399;SDS011;24180;42.676;23.320;2024-01-30T05:09:49;2.85;;;1.83;;
38399;SDS011;24180;42.676;23.320;2024-01-30T05:12:15;3.08;;;2.00;;
38399;SDS011;24180;42.676;23.320;2024-01-30T05:14:40;2.28;;;1.95;;
38399;SDS011;24180;42.676;23.320;2024-01-30T05:17:06;3.13;;;2.08;;
38399;SDS011;24180;42.676;23.320;2024-01-30T05:19:33;2.47;;;2.28;;
38399;SDS011;24180;42.676;23.320;2024-01-30T05:21:58;2.40;;;2.22;;
38399;SDS011;24180;42.676;23.320;2024-01-30T05:24:24;3.08;;;2.22;;
38399;SDS011;24180;42.676;23.320;2024-01-30T05:26:49;2.08;;;1.88;;
38399;SDS011;24180;42.676;23.320;2024-01-30T05:29:16;2.15;;;1.95;;
38399;SDS011;24180;42.676;23.320;2024-01-30T05:31:41;3.08;;;2.00;;
38399;SDS011;24180;42.676;23.320;2024-01-30T05:34:07;2.38;;;2.17;;
38399;SDS011;24180;42.676;23.320;2024-01-30T05:36:34;1.98;;;1.88;;
38399;SDS011;24180;42.676;23.320;2024-01-30T05:38:59;2.17;;;1.98;;
38399;SDS011;24180;42.676;23.320;2024-01-30T05:41:25;5.18;;;1.83;;
38399;SDS011;24180;42.676;23.320;2024-01-30T05:43:50;1.95;;;1.85;;
38399;SDS011;24180;42.676;23.320;2024-01-30T05:46:16;2.28;;;2.08;;
38399;SDS011;24180;42.676;23.320;2024-01-30T05:48:41;2.35;;;2.15;;
38399;SDS011;24180;42.676;23.320;2024-01-30T05:51:07;3.47;;;1.80;;
38399;SDS011;24180;42.676;23.320;2024-01-30T05:53:33;2.17;;;1.80;;
38399;SDS011;24180;42.676;23.320;2024-01-30T05:55:59;2.38;;;2.10;;
38399;SDS011;24180;42.676;23.320;2024-01-30T05:58:28;9.05;;;2.40;;
38399;SDS011;24180;42.676;23.320;2024-01-30T06:00:54;4.50;;;2.42;;
38399;SDS011;24180;42.676;23.320;2024-01-30T06:03:19;2.38;;;2.17;;
38399;SDS011;24180;42.676;23.320;2024-01-30T06:05:45;3.45;;;2.63;;
38399;SDS011;24180;42.676;23.320;2024-01-30T06:08:10;3.22;;;2.20;;
38399;SDS011;24180;42.676;23.320;2024-01-30T06:10:36;3.50;;;2.47;;
38399;SDS011;24180;42.676;23.320;2024-01-30T06:13:01;2.25;;;1.83;;
38399;SDS011;24180;42.676;23.320;2024-01-30T06:15:27;2.72;;;1.73;;
38399;SDS011;24180;42.676;23.320;2024-01-30T06:17:54;2.15;;;1.95;;
38399;SDS011;24180;42.676;23.320;2024-01-30T06:20:20;4.78;;;2.70;;
38399;SDS011;24180;42.676;23.320;2024-01-30T06:22:46;4.30;;;2.45;;
38399;SDS011;24180;42.676;23.320;2024-01-30T06:25:11;4.47;;;2.53;;
38399;SDS011;24180;42.676;23.320;2024-01-30T06:27:37;3.40;;;2.38;;
38399;SDS011;24180;42.676;23.320;2024-01-30T06:30:03;6.07;;;3.38;;
38399;SDS011;24180;42.676;23.320;2024-01-30T06:32:29;4.47;;;2.88;;
38399;SDS011;24180;42.676;23.320;2024-01-30T06:34:59;5.03;;;3.22;;
38399;SDS011;24180;42.676;23.320;2024-01-30T06:37:28;5.25;;;2.67;;
38399;SDS011;24180;42.676;23.320;2024-01-30T06:39:53;5.10;;;2.95;;
38399;SDS011;24180;42.676;23.320;2024-01-30T06:42:19;3.85;;;2.67;;
38399;SDS011;24180;42.676;23.320;2024-01-30T06:44:44;3.67;;;2.80;;
38399;SDS011;24180;42.676;23.320;2024-01-30T06:47:10;2.85;;;2.65;;
38399;SDS011;24180;42.676;23.320;2024-01-30T06:49:36;4.93;;;2.70;;
38399;SDS011;24180;42.676;23.320;2024-01-30T06:52:07;3.03;;;2.58;;
38399;SDS011;24180;42.676;23.320;2024-01-30T06:54:33;2.00;;;1.85;;
38399;SDS011;24180;42.676;23.320;2024-01-30T06:56:58;3.72;;;1.95;;
38399;SDS011;24180;42.676;23.320;2024-01-30T06:59:24;2.97;;;1.90;;
38399;SDS011;24180;42.676;23.320;2024-01-30T07:01:50;2.58;;;2.38;;
38399;SDS011;24180;42.676;23.320;2024-01-30T07:04:15;2.22;;;1.85;;
38399;SDS011;24180;42.676;23.320;2024-01-30T07:06:41;2.10;;;1.85;;
38399;SDS011;24180;42.676;23.320;2024-01-30T07:09:07;2.05;;;1.92;;
38399;SDS011;24180;42.676;23.320;2024-01-30T07:11:33;2.13;;;2.03;;
38399;SDS011;24180;42.676;23.320;2024-01-30T07:13:59;2.58;;;2.38;;
38399;SDS011;24180;42.676;23.320;2024-01-30T07:16:24;2.50;;;2.20;;
38399;SDS011;24180;42.676;23.320;2024-01-30T07:18:50;2.78;;;2.42;;
38399;SDS011;24180;42.676;23.320;2024-01-30T07:21:15;3.53;;;2.80;;
38399;SDS011;24180;42.676;23.320;2024-01-30T07:23:40;3.60;;;2.20;;
38399;SDS011;24180;42.676;23.320;2024-01-30T07:26:07;2.83;;;2.15;;
38399;SDS011;24180;42.676;23.320;2024-01-30T07:28:34;2.70;;;2.00;;
38399;SDS011;24180;42.676;23.320;2024-01-30T07:31:00;2.67;;;1.90;;
38399;SDS011;24180;42.676;23.320;2024-01-30T07:33:26;1.52;;;1.42;;
38399;SDS011;24180;42.676;23.320;2024-01-30T07:35:55;1.95;;;1.85;;
38399;SDS011;24180;42.676;23.320;2024-01-30T07:38:20;1.85;;;1.58;;
38399;SDS011;24180;42.676;23.320;2024-01-30T07:40:46;1.20;;;1.10;;
38399;SDS011;24180;42.676;23.320;2024-01-30T07:43:12;1.63;;;1.40;;
38399;SDS011;24180;42.676;23.320;2024-01-30T07:45:37;1.50;;;1.40;;
38399;SDS011;24180;42.676;23.320;2024-01-30T07:48:04;1.50;;;1.40;;
38399;SDS011;24180;42.676;23.320;2024-01-30T07:50:31;1.70;;;1.60;;
38399;SDS011;24180;42.676;23.320;2024-01-30T07:52:56;3.30;;;1.73;;
38399;SDS011;24180;42.676;23.320;2024-01-30T07:55:22;1.10;;;1.00;;
38399;SDS011;24180;42.676;23.320;2024-01-30T07:57:53;2.17;;;1.98;;
38399;SDS011;24180;42.676;23.320;2024-01-30T08:00:20;2.60;;;1.80;;
38399;SDS011;24180;42.676;23.320;2024-01-30T08:02:46;2.60;;;1.60;;
38399;SDS011;24180;42.676;23.320;2024-01-30T08:05:11;1.67;;;1.45;;
38399;SDS011;24180;42.676;23.320;2024-01-30T08:07:37;3.38;;;2.50;;
38399;SDS011;24180;42.676;23.320;2024-01-30T08:10:02;11.77;;;2.42;;
38399;SDS011;24180;42.676;23.320;2024-01-30T08:12:28;2.58;;;2.20;;
38399;SDS011;24180;42.676;23.320;2024-01-30T08:14:54;3.60;;;2.08;;
38399;SDS011;24180;42.676;23.320;2024-01-30T08:17:19;1.95;;;1.83;;
38399;SDS011;24180;42.676;23.320;2024-01-30T08:19:45;1.55;;;1.45;;
38399;SDS011;24180;42.676;23.320;2024-01-30T08:22:11;1.75;;;1.40;;
38399;SDS011;24180;42.676;23.320;2024-01-30T08:24:37;1.95;;;1.17;;
38399;SDS011;24180;42.676;23.320;2024-01-30T08:27:03;1.65;;;1.55;;
38399;SDS011;24180;42.676;23.320;2024-01-30T08:29:30;1.58;;;1.48;;
38399;SDS011;24180;42.676;23.320;2024-01-30T08:31:55;1.23;;;1.23;;
38399;SDS011;24180;42.676;23.320;2024-01-30T08:34:21;1.50;;;1.40;;
38399;SDS011;24180;42.676;23.320;2024-01-30T08:36:46;2.03;;;1.33;;
38399;SDS011;24180;42.676;23.320;2024-01-30T08:39:13;1.88;;;1.77;;
38399;SDS011;24180;42.676;23.320;2024-01-30T08:41:38;1.38;;;1.27;;
38399;SDS011;24180;42.676;23.320;2024-01-30T08:44:04;3.17;;;2.97;;
38399;SDS011;24180;42.676;23.320;2024-01-30T08:46:29;1.58;;;1.23;;
38399;SDS011;24180;42.676;23.320;2024-01-30T08:48:55;1.63;;;1.52;;
38399;SDS011;24180;42.676;23.320;2024-01-30T08:51:21;2.28;;;2.08;;
38399;SDS011;24180;42.676;23.320;2024-01-30T08:53:47;3.55;;;2.25;;
38399;SDS011;24180;42.676;23.320;2024-01-30T08:56:12;2.95;;;2.65;;
38399;SDS011;24180;42.676;23.320;2024-01-30T08:58:38;5.00;;;2.33;;
38399;SDS011;24180;42.676;23.320;2024-01-30T09:01:04;2.00;;;1.90;;
38399;SDS011;24180;42.676;23.320;2024-01-30T09:03:31;2.75;;;1.90;;
38399;SDS011;24180;42.676;23.320;2024-01-30T09:05:56;2.15;;;1.90;;
38399;SDS011;24180;42.676;23.320;2024-01-30T09:08:22;2.90;;;2.08;;
38399;SDS011;24180;42.676;23.320;2024-01-30T09:10:47;2.22;;;2.13;;
38399;SDS011;24180;42.676;23.320;2024-01-30T09:13:14;2.97;;;2.25;;
38399;SDS011;24180;42.676;23.320;2024-01-30T09:15:40;3.60;;;3.05;;
38399;SDS011;24180;42.676;23.320;2024-01-30T09:18:06;2.85;;;2.65;;
38399;SDS011;24180;42.676;23.320;2024-01-30T09:20:32;3.08;;;2.15;;
38399;SDS011;24180;42.676;23.320;2024-01-30T09:22:58;12.32;;;3.65;;
38399;SDS011;24180;42.676;23.320;2024-01-30T09:25:23;2.63;;;2.15;;
38399;SDS011;24180;42.676;23.320;2024-01-30T09:27:49;3.45;;;2.30;;
38399;SDS011;24180;42.676;23.320;2024-01-30T09:30:15;4.15;;;2.22;;
38399;SDS011;24180;42.676;23.320;2024-01-30T09:32:40;1.92;;;1.77;;
38399;SDS011;24180;42.676;23.320;2024-01-30T09:35:07;2.15;;;1.75;;
38399;SDS011;24180;42.676;23.320;2024-01-30T09:37:32;2.90;;;2.28;;
38399;SDS011;24180;42.676;23.320;2024-01-30T09:39:58;2.10;;;1.90;;
38399;SDS011;24180;42.676;23.320;2024-01-30T09:42:34;3.47;;;2.00;;
38399;SDS011;24180;42.676;23.320;2024-01-30T09:45:03;2.67;;;1.80;;
38399;SDS011;24180;42.676;23.320;2024-01-30T09:47:40;1.92;;;1.73;;
38399;SDS011;24180;42.676;23.320;2024-01-30T09:50:10;2.50;;;2.22;;
38399;SDS011;24180;42.676;23.320;2024-01-30T09:52:36;1.83;;;1.73;;
38399;SDS011;24180;42.676;23.320;2024-01-30T09:55:02;1.98;;;1.85;;
38399;SDS011;24180;42.676;23.320;2024-01-30T09:57:28;1.88;;;1.77;;
38399;SDS011;24180;42.676;23.320;2024-01-30T09:59:54;2.60;;;2.40;;
38399;SDS011;24180;42.676;23.320;2024-01-30T10:02:20;1.48;;;1.23;;
38399;SDS011;24180;42.676;23.320;2024-01-30T10:04:49;2.97;;;1.90;;
38399;SDS011;24180;42.676;23.320;2024-01-30T10:07:16;1.98;;;1.83;;
38399;SDS011;24180;42.676;23.320;2024-01-30T10:09:42;2.67;;;2.47;;
38399;SDS011;24180;42.676;23.320;2024-01-30T10:12:11;2.67;;;2.47;;
38399;SDS011;24180;42.676;23.320;2024-01-30T10:14:40;7.22;;;2.53;;
38399;SDS011;24180;42.676;23.320;2024-01-30T10:17:09;2.17;;;2.08;;
38399;SDS011;24180;42.676;23.320;2024-01-30T10:19:36;2.33;;;2.13;;
38399;SDS011;24180;42.676;23.320;2024-01-30T10:22:05;2.35;;;2.17;;
38399;SDS011;24180;42.676;23.320;2024-01-30T10:24:31;2.38;;;2.28;;
38399;SDS011;24180;42.676;23.320;2024-01-30T10:26:58;1.63;;;1.52;;
38399;SDS011;24180;42.676;23.320;2024-01-30T10:29:24;1.75;;;1.65;;
38399;SDS011;24180;42.676;23.320;2024-01-30T10:31:59;2.28;;;2.08;;
38399;SDS011;24180;42.676;23.320;2024-01-30T10:34:25;2.40;;;2.20;;
38399;SDS011;24180;42.676;23.320;2024-01-30T10:36:51;2.28;;;2.17;;
38399;SDS011;24180;42.676;23.320;2024-01-30T10:39:42;2.75;;;2.20;;
38399;SDS011;24180;42.676;23.320;2024-01-30T10:42:18;2.53;;;2.33;;
38399;SDS011;24180;42.676;23.320;2024-01-30T10:44:48;2.13;;;2.03;;
38399;SDS011;24180;42.676;23.320;2024-01-30T10:47:14;2.58;;;2.40;;
38399;SDS011;24180;42.676;23.320;2024-01-30T10:49:46;2.53;;;2.33;;
38399;SDS011;24180;42.676;23.320;2024-01-30T10:52:12;3.92;;;2.45;;
38399;SDS011;24180;42.676;23.320;2024-01-30T10:54:39;4.78;;;2.42;;
38399;SDS011;24180;42.676;23.320;2024-01-30T10:57:08;2.30;;;2.20;;
38399;SDS011;24180;42.676;23.320;2024-01-30T10:59:36;2.30;;;2.20;;
38399;SDS011;24180;42.676;23.320;2024-01-30T11:02:02;2.97;;;2.78;;
38399;SDS011;24180;42.676;23.320;2024-01-30T11:04:35;2.10;;;2.00;;
38399;SDS011;24180;42.676;23.320;2024-01-30T11:07:19;2.97;;;2.30;;
38399;SDS011;24180;42.676;23.320;2024-01-30T11:09:53;3.40;;;1.90;;
38399;SDS011;24180;42.676;23.320;2024-01-30T11:12:28;1.92;;;1.83;;
38399;SDS011;24180;42.676;23.320;2024-01-30T11:15:13;1.73;;;1.63;;
38399;SDS011;24180;42.676;23.320;2024-01-30T11:20:30;2.30;;;2.20;;
38399;SDS011;24180;42.676;23.320;2024-01-30T11:23:01;2.55;;;2.20;;
38399;SDS011;24180;42.676;23.320;2024-01-30T11:25:31;2.58;;;2.38;;
38399;SDS011;24180;42.676;23.320;2024-01-30T11:27:57;2.45;;;2.30;;
38399;SDS011;24180;42.676;23.320;2024-01-30T11:30:26;4.20;;;2.63;;
38399;SDS011;24180;42.676;23.320;2024-01-30T11:33:02;2.65;;;2.45;;
38399;SDS011;24180;42.676;23.320;2024-01-30T11:35:33;6.28;;;2.13;;
38399;SDS011;24180;42.676;23.320;2024-01-30T11:38:01;2.22;;;2.03;;
38399;SDS011;24180;42.676;23.320;2024-01-30T11:40:30;2.20;;;2.10;;
38399;SDS011;24180;42.676;23.320;2024-01-30T11:42:58;2.05;;;1.95;;
38399;SDS011;24180;42.676;23.320;2024-01-30T11:45:26;2.13;;;2.03;;
38399;SDS011;24180;42.676;23.320;2024-01-30T11:47:54;1.95;;;1.85;;
38399;SDS011;24180;42.676;23.320;2024-01-30T11:50:20;1.77;;;1.67;;
38399;SDS011;24180;42.676;23.320;2024-01-30T11:52:46;1.77;;;1.67;;
38399;SDS011;24180;42.676;23.320;2024-01-30T11:55:13;1.50;;;1.40;;
38399;SDS011;24180;42.676;23.320;2024-01-30T11:57:40;1.90;;;1.80;;
38399;SDS011;24180;42.676;23.320;2024-01-30T12:00:05;1.50;;;1.40;;
38399;SDS011;24180;42.676;23.320;2024-01-30T12:02:39;1.63;;;1.17;;
38399;SDS011;24180;42.676;23.320;2024-01-30T12:05:05;2.47;;;1.73;;
38399;SDS011;24180;42.676;23.320;2024-01-30T12:07:32;4.38;;;1.60;;
38399;SDS011;24180;42.676;23.320;2024-01-30T12:10:01;2.22;;;2.03;;
38399;SDS011;24180;42.676;23.320;2024-01-30T12:12:27;1.50;;;1.40;;
38399;SDS011;24180;42.676;23.320;2024-01-30T12:14:53;1.80;;;1.70;;
38399;SDS011;24180;42.676;23.320;2024-01-30T12:17:38;2.00;;;1.90;;
38399;SDS011;24180;42.676;23.320;2024-01-30T12:20:08;4.43;;;1.73;;
38399;SDS011;24180;42.676;23.320;2024-01-30T12:22:38;1.35;;;1.25;;
38399;SDS011;24180;42.676;23.320;2024-01-30T12:25:12;1.83;;;1.73;;
38399;SDS011;24180;42.676;23.320;2024-01-30T12:27:42;1.90;;;1.80;;
38399;SDS011;24180;42.676;23.320;2024-01-30T12:30:09;2.00;;;1.90;;
38399;SDS011;24180;42.676;23.320;2024-01-30T12:35:02;3.67;;;2.25;;
38399;SDS011;24180;42.676;23.320;2024-01-30T12:37:29;1.75;;;1.58;;
38399;SDS011;24180;42.676;23.320;2024-01-30T12:42:21;1.88;;;1.77;;
38399;SDS011;24180;42.676;23.320;2024-01-30T12:44:47;2.15;;;1.90;;
38399;SDS011;24180;42.676;23.320;2024-01-30T12:47:13;2.05;;;1.90;;
38399;SDS011;24180;42.676;23.320;2024-01-30T12:49:41;2.05;;;1.88;;
38399;SDS011;24180;42.676;23.320;2024-01-30T12:52:13;1.80;;;1.70;;
38399;SDS011;24180;42.676;23.320;2024-01-30T12:54:42;1.83;;;1.73;;
38399;SDS011;24180;42.676;23.320;2024-01-30T12:57:07;2.13;;;2.03;;
38399;SDS011;24180;42.676;23.320;2024-01-30T12:59:33;2.35;;;2.20;;
38399;SDS011;24180;42.676;23.320;2024-01-30T13:02:00;1.75;;;1.65;;
38399;SDS011;24180;42.676;23.320;2024-01-30T13:06:52;2.45;;;1.60;;
38399;SDS011;24180;42.676;23.320;2024-01-30T13:09:17;3.50;;;3.20;;
38399;SDS011;24180;42.676;23.320;2024-01-30T13:11:43;4.70;;;3.10;;
38399;SDS011;24180;42.676;23.320;2024-01-30T13:14:08;2.63;;;2.42;;
38399;SDS011;24180;42.676;23.320;2024-01-30T13:16:34;3.33;;;2.28;;
38399;SDS011;24180;42.676;23.320;2024-01-30T13:18:59;1.80;;;1.67;;
38399;SDS011;24180;42.676;23.320;2024-01-30T13:21:26;2.10;;;1.90;;
38399;SDS011;24180;42.676;23.320;2024-01-30T13:23:52;1.60;;;1.50;;
38399;SDS011;24180;42.676;23.320;2024-01-30T13:26:19;1.88;;;1.77;;
38399;SDS011;24180;42.676;23.320;2024-01-30T13:28:48;3.67;;;2.38;;
38399;SDS011;24180;42.676;23.320;2024-01-30T13:31:14;2.20;;;2.00;;
38399;SDS011;24180;42.676;23.320;2024-01-30T13:33:40;2.65;;;1.77;;
38399;SDS011;24180;42.676;23.320;2024-01-30T13:36:06;1.83;;;1.73;;
38399;SDS011;24180;42.676;23.320;2024-01-30T13:38:33;2.30;;;2.10;;
38399;SDS011;24180;42.676;23.320;2024-01-30T13:40:59;1.58;;;1.48;;
38399;SDS011;24180;42.676;23.320;2024-01-30T13:43:25;2.05;;;1.77;;
38399;SDS011;24180;42.676;23.320;2024-01-30T13:45:50;1.65;;;1.48;;
38399;SDS011;24180;42.676;23.320;2024-01-30T13:48:16;1.90;;;1.80;;
38399;SDS011;24180;42.676;23.320;2024-01-30T13:50:42;1.98;;;1.88;;
38399;SDS011;24180;42.676;23.320;2024-01-30T13:53:07;2.30;;;2.10;;
38399;SDS011;24180;42.676;23.320;2024-01-30T13:55:33;2.78;;;2.08;;
38399;SDS011;24180;42.676;23.320;2024-01-30T13:57:59;3.75;;;2.33;;
38399;SDS011;24180;42.676;23.320;2024-01-30T14:00:26;2.47;;;2.28;;
38399;SDS011;24180;42.676;23.320;2024-01-30T14:02:52;2.45;;;2.17;;
38399;SDS011;24180;42.676;23.320;2024-01-30T14:05:19;2.28;;;2.17;;
38399;SDS011;24180;42.676;23.320;2024-01-30T14:07:46;1.70;;;1.60;;
38399;SDS011;24180;42.676;23.320;2024-01-30T14:10:12;3.28;;;1.58;;
38399;SDS011;24180;42.676;23.320;2024-01-30T14:12:38;2.00;;;1.90;;
38399;SDS011;24180;42.676;23.320;2024-01-30T14:15:03;2.38;;;2.17;;
38399;SDS011;24180;42.676;23.320;2024-01-30T14:17:29;2.28;;;2.08;;
38399;SDS011;24180;42.676;23.320;2024-01-30T14:19:54;2.92;;;2.30;;
38399;SDS011;24180;42.676;23.320;2024-01-30T14:22:20;2.10;;;1.88;;
38399;SDS011;24180;42.676;23.320;2024-01-30T14:24:45;3.00;;;2.05;;
38399;SDS011;24180;42.676;23.320;2024-01-30T14:27:12;2.55;;;2.28;;
38399;SDS011;24180;42.676;23.320;2024-01-30T14:29:37;2.85;;;2.17;;
38399;SDS011;24180;42.676;23.320;2024-01-30T14:32:03;2.90;;;2.50;;
38399;SDS011;24180;42.676;23.320;2024-01-30T14:34:29;3.45;;;2.40;;
38399;SDS011;24180;42.676;23.320;2024-01-30T14:36:54;2.10;;;1.90;;
38399;SDS011;24180;42.676;23.320;2024-01-30T14:39:20;1.73;;;1.63;;